createdAt,value
2022-12-03T00:00:37.444Z,92547.59
2022-12-03T00:03:04.264Z,92547.19
2022-12-03T00:05:31.124Z,92542.63
2022-12-03T00:07:57.713Z,92544.97
2022-12-03T00:10:24.235Z,92549.38
2022-12-03T00:12:51.098Z,92548.38
2022-12-03T00:15:17.760Z,92540.75
2022-12-03T00:17:44.459Z,92544.34
2022-12-03T00:20:19.020Z,92547.53
2022-12-03T00:22:45.770Z,92549.69
2022-12-03T00:25:12.618Z,92552.84
2022-12-03T00:27:39.500Z,92552.28
2022-12-03T00:30:07.584Z,92552.28
2022-12-03T00:32:34.205Z,92549.53
2022-12-03T00:35:00.692Z,92552.31
2022-12-03T00:37:27.118Z,92551.69
2022-12-03T00:39:53.559Z,92550.09
2022-12-03T00:42:19.979Z,92543.94
2022-12-03T00:44:46.693Z,92542.72
2022-12-03T00:47:13.195Z,92546.91
2022-12-03T00:49:39.694Z,92549.91
2022-12-03T00:52:06.175Z,92554.72
2022-12-03T00:54:32.715Z,92556.28
2022-12-03T00:56:59.406Z,92553.69
2022-12-03T00:59:25.855Z,92554.72
2022-12-03T01:01:52.347Z,92552.69
2022-12-03T01:04:18.888Z,92556.28
2022-12-03T01:06:45.415Z,92555.88
2022-12-03T01:09:11.850Z,92556.88
2022-12-03T01:11:38.290Z,92559.47
2022-12-03T01:14:10.090Z,92562.03
2022-12-03T01:16:37.098Z,92558.88
2022-12-03T01:19:05.548Z,92554.13
2022-12-03T01:21:32.244Z,92562.31
2022-12-03T01:23:59.393Z,92557.13
2022-12-03T01:26:25.814Z,92554.78
2022-12-03T01:28:53.105Z,92556.97
2022-12-03T01:31:38.944Z,92558.72
2022-12-03T01:34:05.784Z,92559.13
2022-12-03T01:36:34.180Z,92560.72
2022-12-03T01:39:01.950Z,92558.19
2022-12-03T01:41:29.716Z,92557.81
2022-12-03T01:43:57.773Z,92565.38
2022-12-03T01:46:35.051Z,92565.38
2022-12-03T01:49:01.653Z,92560.97
2022-12-03T01:51:29.646Z,92561.56
2022-12-03T01:53:56.319Z,92561.59
2022-12-03T01:56:22.865Z,92560.84
2022-12-03T01:58:49.653Z,92561.25
2022-12-03T02:01:18.402Z,92558.81
2022-12-03T02:03:46.405Z,92560.81
2022-12-03T02:06:22.748Z,92564.41
2022-12-03T02:08:49.326Z,92560.03
2022-12-03T02:11:31.691Z,92558.06
2022-12-03T02:14:09.001Z,92562.81
2022-12-03T02:16:38.363Z,92556.47
2022-12-03T02:19:16.359Z,92555.25
2022-12-03T02:21:47.650Z,92560.00
2022-12-03T02:24:21.804Z,92562.44
2022-12-03T02:26:48.310Z,92571.00
2022-12-03T02:29:14.846Z,92565.19
2022-12-03T02:31:42.676Z,92556.25
2022-12-03T02:34:10.633Z,92563.25
2022-12-03T02:36:38.166Z,92556.28
2022-12-03T02:39:05.366Z,92554.28
2022-12-03T02:41:50.806Z,92558.47
2022-12-03T02:44:17.289Z,92557.06
2022-12-03T02:46:43.872Z,92553.88
2022-12-03T02:49:10.530Z,92553.25
2022-12-03T02:51:37.581Z,92553.47
2022-12-03T02:54:04.389Z,92559.28
2022-12-03T02:56:32.321Z,92551.53
2022-12-03T02:59:03.656Z,92555.72
2022-12-03T03:01:30.359Z,92549.53
2022-12-03T03:03:58.307Z,92553.13
2022-12-03T03:06:25.062Z,92552.34
2022-12-03T03:08:51.775Z,92552.34
2022-12-03T03:11:18.489Z,92552.97
2022-12-03T03:13:45.005Z,92551.81
2022-12-03T03:16:11.486Z,92544.25
2022-12-03T03:18:38.166Z,92547.84
2022-12-03T03:21:06.039Z,92546.44
2022-12-03T03:23:32.780Z,92540.44
2022-12-03T03:26:06.213Z,92542.09
2022-12-03T03:28:35.759Z,92545.09
2022-12-03T03:31:04.976Z,92549.47
2022-12-03T03:33:31.905Z,92541.91
2022-12-03T03:36:00.398Z,92540.50
2022-12-03T03:38:29.331Z,92541.47
2022-12-03T03:40:57.944Z,92541.47
2022-12-03T03:43:25.082Z,92541.81
2022-12-03T03:45:53.609Z,92535.44
2022-12-03T03:48:21.521Z,92541.19
2022-12-03T03:50:48.950Z,92538.03
2022-12-03T03:53:16.788Z,92540.63
2022-12-03T03:55:43.361Z,92536.63
2022-12-03T03:58:09.918Z,92533.84
2022-12-03T04:00:36.833Z,92532.91
2022-12-03T04:03:04.951Z,92528.34
2022-12-03T04:05:31.826Z,92525.94
2022-12-03T04:07:59.224Z,92532.88
2022-12-03T04:10:44.080Z,92535.09
2022-12-03T04:13:10.487Z,92536.28
2022-12-03T04:15:36.928Z,92533.84
2022-12-03T04:18:22.479Z,92537.88
2022-12-03T04:20:48.892Z,92533.94
2022-12-03T04:23:15.335Z,92534.34
2022-12-03T04:26:00.257Z,92529.56
2022-12-03T04:28:45.173Z,92522.81
2022-12-03T04:31:49.836Z,92516.25
2022-12-03T04:34:35.105Z,92517.66
2022-12-03T04:37:01.929Z,92503.72
2022-12-03T04:39:28.720Z,92510.31
2022-12-03T04:41:55.148Z,92514.84
2022-12-03T04:44:33.491Z,92514.03
2022-12-03T04:47:00.809Z,92508.06
2022-12-03T04:49:27.222Z,92513.69
2022-12-03T04:51:53.660Z,92514.22
2022-12-03T04:54:21.225Z,92519.22
2022-12-03T04:56:47.733Z,92511.22
2022-12-03T04:59:16.436Z,92521.38
2022-12-03T05:01:44.722Z,92516.41
2022-12-03T05:04:13.239Z,92518.78
2022-12-03T05:06:40.953Z,92517.97
2022-12-03T05:09:07.808Z,92519.56
2022-12-03T05:11:34.364Z,92516.97
2022-12-03T05:14:00.882Z,92521.38
2022-12-03T05:16:28.705Z,92523.00
2022-12-03T05:18:55.202Z,92521.38
2022-12-03T05:21:21.643Z,92528.34
2022-12-03T05:23:48.164Z,92523.53
2022-12-03T05:26:14.812Z,92528.34
2022-12-03T05:28:41.235Z,92517.63
2022-12-03T05:31:07.921Z,92526.56
2022-12-03T05:33:36.416Z,92529.56
2022-12-03T05:36:06.075Z,92526.75
2022-12-03T05:38:32.543Z,92527.75
2022-12-03T05:40:58.969Z,92524.41
2022-12-03T05:43:25.555Z,92529.16
2022-12-03T05:45:52.137Z,92519.22
2022-12-03T05:48:18.759Z,92523.16
2022-12-03T05:50:46.024Z,92522.16
2022-12-03T05:53:16.837Z,92520.00
2022-12-03T05:55:43.379Z,92522.25
2022-12-03T05:58:09.861Z,92527.22
2022-12-03T06:00:42.417Z,92528.25
2022-12-03T06:03:09.988Z,92526.84
2022-12-03T06:05:36.556Z,92528.38
2022-12-03T06:08:03.074Z,92531.78
2022-12-03T06:10:30.057Z,92535.19
2022-12-03T06:12:56.739Z,92527.78
2022-12-03T06:15:23.808Z,92522.03
2022-12-03T06:17:50.585Z,92527.59
2022-12-03T06:20:19.324Z,92523.41
2022-12-03T06:22:46.772Z,92524.00
2022-12-03T06:25:13.820Z,92510.91
2022-12-03T06:27:40.351Z,92512.84
2022-12-03T06:30:08.752Z,92510.09
2022-12-03T06:32:35.342Z,92507.56
2022-12-03T06:35:01.781Z,92504.56
2022-12-03T06:37:28.298Z,92503.56
2022-12-03T06:39:54.879Z,92504.94
2022-12-03T06:42:21.320Z,92497.16
2022-12-03T06:44:47.817Z,92516.19
2022-12-03T06:47:14.231Z,92520.16
2022-12-03T06:49:40.685Z,92522.91
2022-12-03T06:52:07.204Z,92528.66
2022-12-03T06:54:33.697Z,92528.88
2022-12-03T06:57:00.304Z,92522.72
2022-12-03T06:59:26.803Z,92529.66
2022-12-03T07:01:53.266Z,92538.59
2022-12-03T07:04:19.913Z,92537.25
2022-12-03T07:06:46.334Z,92532.28
2022-12-03T07:09:16.261Z,92543.00
2022-12-03T07:11:42.992Z,92533.66
2022-12-03T07:14:11.235Z,92532.06
2022-12-03T07:16:39.291Z,92535.06
2022-12-03T07:19:06.581Z,92532.25
2022-12-03T07:21:33.149Z,92536.41
2022-12-03T07:23:59.584Z,92528.47
2022-12-03T07:26:26.280Z,92530.81
2022-12-03T07:28:52.849Z,92520.91
2022-12-03T07:31:19.373Z,92524.50
2022-12-03T07:33:46.211Z,92525.91
2022-12-03T07:36:12.695Z,92523.72
2022-12-03T07:38:39.133Z,92520.31
2022-12-03T07:41:05.862Z,92517.72
2022-12-03T07:43:32.433Z,92515.94
2022-12-03T07:45:58.888Z,92508.97
2022-12-03T07:48:25.308Z,92510.56
2022-12-03T07:50:51.733Z,92513.41
2022-12-03T07:53:18.190Z,92510.16
2022-12-03T07:55:44.635Z,92508.56
2022-12-03T07:58:11.941Z,92507.75
2022-12-03T08:00:38.411Z,92506.75
2022-12-03T08:03:04.865Z,92507.50
2022-12-03T08:05:31.359Z,92512.66
2022-12-03T08:07:57.907Z,92514.28
2022-12-03T08:10:25.528Z,92517.66
2022-12-03T08:12:53.624Z,92512.84
2022-12-03T08:15:25.879Z,92512.47
2022-12-03T08:18:00.997Z,92517.38
2022-12-03T08:20:39.949Z,92520.53
2022-12-03T08:23:18.201Z,92518.53
2022-12-03T08:25:45.455Z,92512.72
2022-12-03T08:28:21.600Z,92509.94
2022-12-03T08:31:03.134Z,92508.13
2022-12-03T08:33:36.122Z,92502.91
2022-12-03T08:36:13.022Z,92507.81
2022-12-03T08:38:40.777Z,92503.47
2022-12-03T08:41:13.780Z,92496.28
2022-12-03T08:43:42.806Z,92507.78
2022-12-03T08:46:18.579Z,92504.56
2022-12-03T08:48:48.955Z,92502.59
2022-12-03T08:51:23.750Z,92507.25
2022-12-03T08:53:59.758Z,92503.06
2022-12-03T08:56:29.983Z,92502.88
2022-12-03T08:59:03.003Z,92499.13
2022-12-03T09:01:59.463Z,92504.94
2022-12-03T09:04:38.708Z,92510.31
2022-12-03T09:07:05.303Z,92510.25
2022-12-03T09:09:31.744Z,92503.34
2022-12-03T09:11:58.252Z,92502.13
2022-12-03T09:14:24.845Z,92507.91
2022-12-03T09:16:55.459Z,92503.13
2022-12-03T09:19:25.034Z,92512.22
2022-12-03T09:21:51.963Z,92504.03
2022-12-03T09:24:18.452Z,92511.53
2022-12-03T09:26:44.921Z,92508.06
2022-12-03T09:29:12.679Z,92507.59
2022-12-03T09:31:39.538Z,92513.13
2022-12-03T09:34:07.716Z,92509.69
2022-12-03T09:36:34.233Z,92512.66
2022-12-03T09:39:00.692Z,92516.03
2022-12-03T09:41:27.488Z,92519.44
2022-12-03T09:44:15.788Z,92518.47
2022-12-03T09:46:42.336Z,92527.44
2022-12-03T09:49:15.838Z,92515.31
2022-12-03T09:51:43.908Z,92515.72
2022-12-03T09:54:22.840Z,92511.72
2022-12-03T09:56:49.603Z,92504.94
2022-12-03T09:59:16.351Z,92495.94
2022-12-03T10:01:43.329Z,92489.13
2022-12-03T10:04:10.102Z,92490.50
2022-12-03T10:06:40.941Z,92488.13
2022-12-03T10:09:12.074Z,92483.38
2022-12-03T10:11:38.624Z,92482.75
2022-12-03T10:14:05.922Z,92470.75
2022-12-03T10:16:33.771Z,92474.69
2022-12-03T10:19:01.116Z,92470.75
2022-12-03T10:21:37.910Z,92480.88
2022-12-03T10:24:25.930Z,92469.56
2022-12-03T10:26:54.566Z,92464.63
2022-12-03T10:29:32.935Z,92461.81
2022-12-03T10:32:07.606Z,92458.00
2022-12-03T10:34:36.202Z,92467.84
2022-12-03T10:37:13.359Z,92471.38
2022-12-03T10:39:59.718Z,92455.03
2022-12-03T10:42:32.281Z,92454.63
2022-12-03T10:45:12.147Z,92446.69
2022-12-03T10:47:38.785Z,92448.72
2022-12-03T10:50:14.324Z,92445.19
2022-12-03T10:52:40.892Z,92451.69
2022-12-03T10:55:12.093Z,92444.06
2022-12-03T10:57:43.776Z,92444.44
2022-12-03T11:00:19.179Z,92438.81
2022-12-03T11:02:50.545Z,92439.84
2022-12-03T11:05:29.161Z,92442.28
2022-12-03T11:07:56.749Z,92438.50
2022-12-03T11:10:23.576Z,92440.78
2022-12-03T11:13:27.135Z,92438.13
2022-12-03T11:15:54.390Z,92433.63
2022-12-03T11:18:35.736Z,92438.41
2022-12-03T11:21:13.815Z,92424.78
2022-12-03T11:23:46.196Z,92429.91
2022-12-03T11:26:38.733Z,92423.72
2022-12-03T11:29:13.991Z,92425.88
2022-12-03T11:31:47.224Z,92417.66
2022-12-03T11:34:17.046Z,92413.19
2022-12-03T11:37:11.347Z,92416.50
2022-12-03T11:39:55.547Z,92401.03
2022-12-03T11:42:27.929Z,92394.94
2022-12-03T11:45:06.526Z,92397.06
2022-12-03T11:48:08.396Z,92401.41
2022-12-03T11:50:40.429Z,92389.75
2022-12-03T11:53:15.579Z,92382.34
2022-12-03T11:55:48.284Z,92379.13
2022-12-03T11:58:16.580Z,92375.53
2022-12-03T12:01:00.565Z,92373.50
2022-12-03T12:03:35.029Z,92372.69
2022-12-03T12:06:13.268Z,92380.91
2022-12-03T12:08:54.357Z,92373.63
2022-12-03T12:11:34.013Z,92371.06
2022-12-03T12:14:09.274Z,92366.88
2022-12-03T12:16:51.055Z,92363.50
2022-12-03T12:19:41.373Z,92360.81
2022-12-03T12:22:18.560Z,92366.88
2022-12-03T12:24:51.660Z,92360.81
2022-12-03T12:27:39.217Z,92358.09
2022-12-03T12:30:13.645Z,92355.88
2022-12-03T12:32:47.272Z,92349.31
2022-12-03T12:35:21.701Z,92352.72
2022-12-03T12:38:01.296Z,92351.03
2022-12-03T12:40:30.298Z,92346.59
2022-12-03T12:43:15.265Z,92349.63
2022-12-03T12:45:44.869Z,92351.19
2022-12-03T12:48:14.380Z,92342.78
2022-12-03T12:50:42.744Z,92350.44
2022-12-03T12:53:26.124Z,92351.00
2022-12-03T12:56:01.172Z,92346.47
2022-12-03T12:58:33.124Z,92350.06
2022-12-03T13:01:04.333Z,92335.22
2022-12-03T13:03:34.829Z,92329.16
2022-12-03T13:06:02.376Z,92322.91
2022-12-03T13:08:39.200Z,92321.72
2022-12-03T13:11:06.896Z,92320.63
2022-12-03T13:13:44.044Z,92328.44
2022-12-03T13:16:19.764Z,92331.81
2022-12-03T13:18:53.815Z,92325.41
2022-12-03T13:21:40.709Z,92321.69
2022-12-03T13:24:25.780Z,92319.88
2022-12-03T13:26:52.684Z,92325.88
2022-12-03T13:29:20.246Z,92327.53
2022-12-03T13:31:52.629Z,92326.16
2022-12-03T13:34:22.000Z,92322.53
2022-12-03T13:36:55.394Z,92318.03
2022-12-03T13:39:31.467Z,92313.81
2022-12-03T13:42:38.225Z,92311.22
2022-12-03T13:45:13.415Z,92316.53
2022-12-03T13:47:45.483Z,92321.59
2022-12-03T13:50:23.580Z,92320.84
2022-12-03T13:52:50.147Z,92317.31
2022-12-03T13:55:26.586Z,92323.00
2022-12-03T13:57:53.212Z,92322.66
2022-12-03T14:00:19.786Z,92323.75
2022-12-03T14:02:46.544Z,92323.56
2022-12-03T14:05:13.149Z,92322.81
2022-12-03T14:07:40.296Z,92319.69
2022-12-03T14:10:08.877Z,92321.66
2022-12-03T14:12:35.371Z,92322.59
2022-12-03T14:15:02.717Z,92324.75
2022-12-03T14:17:30.950Z,92321.16
2022-12-03T14:20:00.496Z,92321.50
2022-12-03T14:22:27.799Z,92305.06
2022-12-03T14:24:54.430Z,92307.22
2022-12-03T14:27:22.158Z,92308.78
2022-12-03T14:29:48.590Z,92308.56
2022-12-03T14:32:15.081Z,92305.34
2022-12-03T14:34:41.565Z,92305.34
2022-12-03T14:37:08.013Z,92312.09
2022-12-03T14:39:34.481Z,92312.97
2022-12-03T14:42:13.022Z,92324.00
2022-12-03T14:44:50.379Z,92317.50
2022-12-03T14:47:19.765Z,92321.84
2022-12-03T14:49:46.539Z,92326.31
2022-12-03T14:52:13.136Z,92322.09
2022-12-03T14:54:42.233Z,92343.13
2022-12-03T14:57:09.891Z,92324.81
2022-12-03T14:59:36.326Z,92324.00
2022-12-03T15:02:02.820Z,92327.25
2022-12-03T15:04:29.386Z,92320.28
2022-12-03T15:06:55.867Z,92328.91
2022-12-03T15:09:22.394Z,92328.09
2022-12-03T15:11:48.853Z,92325.06
2022-12-03T15:14:15.474Z,92333.22
2022-12-03T15:16:41.995Z,92331.44
2022-12-03T15:19:08.503Z,92332.00
2022-12-03T15:21:35.135Z,92337.81
2022-12-03T15:24:02.290Z,92335.66
2022-12-03T15:26:29.276Z,92338.81
2022-12-03T15:28:55.829Z,92343.41
2022-12-03T15:31:22.308Z,92338.44
2022-12-03T15:33:48.781Z,92331.31
2022-12-03T15:36:15.462Z,92334.56
2022-12-03T15:38:41.913Z,92331.16
2022-12-03T15:41:27.031Z,92337.59
2022-12-03T15:43:53.479Z,92332.97
2022-12-03T15:46:20.514Z,92323.28
2022-12-03T15:48:47.732Z,92314.50
2022-12-03T15:51:16.971Z,92313.69
2022-12-03T15:53:43.409Z,92311.59
2022-12-03T15:56:11.815Z,92311.53
2022-12-03T15:58:39.021Z,92306.16
2022-12-03T16:01:05.924Z,92307.56
2022-12-03T16:03:32.454Z,92308.38
2022-12-03T16:05:59.573Z,92301.88
2022-12-03T16:08:26.869Z,92304.22
2022-12-03T16:10:53.329Z,92310.97
2022-12-03T16:13:19.760Z,92309.34
2022-12-03T16:15:46.241Z,92299.97
2022-12-03T16:18:12.688Z,92300.16
2022-12-03T16:20:39.161Z,92309.72
2022-12-03T16:23:05.715Z,92304.19
2022-12-03T16:25:32.151Z,92293.13
2022-12-03T16:27:58.645Z,92291.88
2022-12-03T16:30:25.164Z,92291.31
2022-12-03T16:32:51.673Z,92286.72
2022-12-03T16:35:18.347Z,92284.13
2022-12-03T16:37:44.776Z,92285.72
2022-12-03T16:40:11.689Z,92282.72
2022-12-03T16:42:38.109Z,92287.47
2022-12-03T16:45:10.911Z,92280.72
2022-12-03T16:47:37.475Z,92279.28
2022-12-03T16:50:07.519Z,92283.44
2022-12-03T16:52:34.830Z,92286.72
2022-12-03T16:55:01.879Z,92288.91
2022-12-03T16:57:33.302Z,92286.41
2022-12-03T17:00:00.118Z,92293.16
2022-12-03T17:02:27.450Z,92282.41
2022-12-03T17:04:54.123Z,92296.31
2022-12-03T17:07:20.672Z,92301.50
2022-12-03T17:09:47.164Z,92304.72
2022-12-03T17:12:13.581Z,92291.00
2022-12-03T17:14:40.018Z,92291.00
2022-12-03T17:17:06.434Z,92290.78
2022-12-03T17:19:32.878Z,92282.63
2022-12-03T17:21:59.759Z,92274.88
2022-12-03T17:24:26.227Z,92277.22
2022-12-03T17:26:52.700Z,92274.69
2022-12-03T17:29:19.196Z,92266.94
2022-12-03T17:31:45.737Z,92279.28
2022-12-03T17:34:12.203Z,92276.50
2022-12-03T17:36:38.619Z,92283.88
2022-12-03T17:39:05.085Z,92268.00
2022-12-03T17:41:31.492Z,92282.56
2022-12-03T17:43:57.954Z,92275.03
2022-12-03T17:46:24.451Z,92281.34
2022-12-03T17:48:50.886Z,92280.34
2022-12-03T17:51:19.168Z,92276.22
2022-12-03T17:53:45.648Z,92277.03
2022-12-03T17:56:12.129Z,92273.00
2022-12-03T17:58:39.209Z,92271.81
2022-12-03T18:01:07.760Z,92261.81
2022-12-03T18:03:34.230Z,92262.41
2022-12-03T18:06:00.657Z,92260.69
2022-12-03T18:08:27.137Z,92262.63
2022-12-03T18:10:53.568Z,92262.41
2022-12-03T18:13:19.999Z,92258.63
2022-12-03T18:15:46.435Z,92260.81
2022-12-03T18:18:13.080Z,92263.59
2022-12-03T18:20:39.521Z,92267.81
2022-12-03T18:23:05.948Z,92264.84
2022-12-03T18:25:32.492Z,92258.09
2022-12-03T18:27:59.109Z,92259.00
2022-12-03T18:30:25.660Z,92249.19
2022-12-03T18:32:52.181Z,92247.59
2022-12-03T18:35:18.720Z,92256.22
2022-12-03T18:37:45.481Z,92255.97
2022-12-03T18:40:19.311Z,92248.03
2022-12-03T18:42:46.424Z,92246.81
2022-12-03T18:45:14.718Z,92254.94
2022-12-03T18:47:41.256Z,92253.31
2022-12-03T18:50:08.149Z,92251.72
2022-12-03T18:52:34.599Z,92249.56
2022-12-03T18:55:01.364Z,92250.34
2022-12-03T18:57:27.789Z,92256.88
2022-12-03T18:59:54.622Z,92246.16
2022-12-03T19:05:08.833Z,92255.50
2022-12-03T19:07:35.367Z,92259.09
2022-12-03T19:10:01.981Z,92263.09
2022-12-03T19:12:28.457Z,92256.94
2022-12-03T19:14:54.882Z,92246.44
2022-12-03T19:17:21.638Z,92256.44
2022-12-03T19:19:48.133Z,92250.56
2022-12-03T19:22:14.631Z,92257.34
2022-12-03T19:24:41.255Z,92248.63
2022-12-03T19:27:07.905Z,92245.06
2022-12-03T19:29:34.648Z,92243.44
2022-12-03T19:32:01.315Z,92245.44
2022-12-03T19:34:27.960Z,92249.22
2022-12-03T19:36:54.634Z,92241.59
2022-12-03T19:39:21.352Z,92243.94
2022-12-03T19:41:47.891Z,92250.06
2022-12-03T19:44:16.167Z,92247.47
2022-12-03T19:46:43.632Z,92236.03
2022-12-03T19:49:11.097Z,92231.88
2022-12-03T19:51:37.891Z,92235.19
2022-12-03T19:54:07.238Z,92227.03
2022-12-03T19:56:34.564Z,92238.78
2022-12-03T19:59:01.206Z,92227.75
2022-12-03T20:01:30.694Z,92228.50
2022-12-03T20:03:59.233Z,92219.13
2022-12-03T20:06:28.863Z,92224.81
2022-12-03T20:09:00.688Z,92222.38
2022-12-03T20:11:30.454Z,92221.63
2022-12-03T20:13:59.533Z,92218.16
2022-12-03T20:16:27.462Z,92224.16
2022-12-03T20:18:59.257Z,92228.88
2022-12-03T20:21:26.448Z,92235.56
2022-12-03T20:23:53.157Z,92233.94
2022-12-03T20:26:20.821Z,92231.66
2022-12-03T20:28:50.332Z,92224.78
2022-12-03T20:31:19.522Z,92218.50
2022-12-03T20:33:50.157Z,92220.47
2022-12-03T20:36:18.912Z,92224.00
2022-12-03T20:38:45.485Z,92225.16
2022-12-03T20:41:14.712Z,92222.59
2022-12-03T20:43:41.717Z,92226.59
2022-12-03T20:46:19.659Z,92228.63
2022-12-03T20:48:46.711Z,92236.16
2022-12-03T20:51:16.422Z,92231.19
2022-12-03T20:53:43.736Z,92226.97
2022-12-03T20:56:10.810Z,92228.59
2022-12-03T20:58:37.428Z,92228.59
2022-12-03T21:01:16.104Z,92223.66
2022-12-03T21:03:43.686Z,92228.66
2022-12-03T21:06:10.496Z,92228.97
2022-12-03T21:08:40.980Z,92221.44
2022-12-03T21:11:10.521Z,92220.44
2022-12-03T21:13:37.243Z,92212.69
2022-12-03T21:16:06.583Z,92211.50
2022-12-03T21:18:33.578Z,92211.09
2022-12-03T21:21:01.382Z,92216.47
2022-12-03T21:23:29.382Z,92217.31
2022-12-03T21:26:06.236Z,92205.19
2022-12-03T21:28:33.385Z,92215.06
2022-12-03T21:31:05.159Z,92209.09
2022-12-03T21:33:32.349Z,92209.09
2022-12-03T21:35:59.591Z,92212.25
2022-12-03T21:38:28.054Z,92224.59
2022-12-03T21:40:55.203Z,92214.03
2022-12-03T21:43:21.795Z,92211.50
2022-12-03T21:45:48.451Z,92208.91
2022-12-03T21:48:15.075Z,92203.97
2022-12-03T21:50:41.855Z,92209.53
2022-12-03T21:53:09.231Z,92212.69
2022-12-03T21:55:41.188Z,92217.09
2022-12-03T21:58:08.431Z,92208.72
2022-12-03T22:00:35.608Z,92198.34
2022-12-03T22:03:02.187Z,92206.09
2022-12-03T22:05:28.825Z,92202.78
2022-12-03T22:07:55.290Z,92203.13
2022-12-03T22:10:21.786Z,92194.63
2022-12-03T22:12:48.259Z,92200.78
2022-12-03T22:15:18.674Z,92203.94
2022-12-03T22:17:46.209Z,92201.50
2022-12-03T22:20:13.226Z,92189.22
2022-12-03T22:22:39.655Z,92190.22
2022-12-03T22:25:06.293Z,92191.03
2022-12-03T22:27:33.055Z,92190.59
2022-12-03T22:29:59.579Z,92192.91
2022-12-03T22:32:26.059Z,92203.06
2022-12-03T22:34:52.611Z,92207.06
2022-12-03T22:37:19.074Z,92201.94
2022-12-03T22:39:45.536Z,92200.75
2022-12-03T22:42:12.002Z,92202.31
2022-12-03T22:44:38.437Z,92203.31
2022-12-03T22:47:04.989Z,92199.75
2022-12-03T22:49:31.584Z,92193.16
2022-12-03T22:51:58.037Z,92183.59
2022-12-03T22:54:24.514Z,92196.31
2022-12-03T22:56:51.084Z,92195.50
2022-12-03T22:59:17.558Z,92185.97
2022-12-03T23:01:44.015Z,92190.28
2022-12-03T23:04:11.256Z,92175.03
2022-12-03T23:06:38.505Z,92178.97
2022-12-03T23:09:06.446Z,92166.63
2022-12-03T23:11:33.064Z,92167.63
2022-12-03T23:13:59.600Z,92166.47
2022-12-03T23:16:29.880Z,92165.28
2022-12-03T23:19:00.895Z,92169.69
2022-12-03T23:21:30.456Z,92165.94
2022-12-03T23:24:02.450Z,92165.91
2022-12-03T23:26:29.413Z,92167.69
2022-12-03T23:28:56.433Z,92167.09
2022-12-03T23:31:28.675Z,92167.69
2022-12-03T23:33:56.587Z,92163.31
2022-12-03T23:36:24.596Z,92162.16
2022-12-03T23:38:51.164Z,92167.34
2022-12-03T23:41:20.256Z,92162.78
2022-12-03T23:43:46.709Z,92162.94
2022-12-03T23:46:15.984Z,92163.31
2022-12-03T23:48:43.507Z,92163.38
2022-12-03T23:51:12.876Z,92155.03
2022-12-03T23:53:40.340Z,92166.94
2022-12-03T23:56:08.597Z,92160.00
2022-12-03T23:58:35.167Z,92159.78
